sensor_id;sensor_type;location;lat;lon;timestamp;temperature;humidity
35607;DHT22;21729;58.392;15.656;2022-12-26T00:02:06;2.80;99.90
35607;DHT22;21729;58.392;15.656;2022-12-26T00:04:33;2.80;99.90
35607;DHT22;21729;58.392;15.656;2022-12-26T00:07:01;2.80;99.90
35607;DHT22;21729;58.392;15.656;2022-12-26T00:09:30;2.80;99.90
35607;DHT22;21729;58.392;15.656;2022-12-26T00:11:57;2.80;99.90
35607;DHT22;21729;58.392;15.656;2022-12-26T00:14:24;2.80;99.90
35607;DHT22;21729;58.392;15.656;2022-12-26T00:16:52;2.70;99.90
35607;DHT22;21729;58.392;15.656;2022-12-26T00:19:19;2.70;99.90
35607;DHT22;21729;58.392;15.656;2022-12-26T00:21:46;2.70;99.90
35607;DHT22;21729;58.392;15.656;2022-12-26T00:24:14;2.70;99.90
35607;DHT22;21729;58.392;15.656;2022-12-26T00:26:41;2.70;99.90
35607;DHT22;21729;58.392;15.656;2022-12-26T00:29:08;2.70;99.90
35607;DHT22;21729;58.392;15.656;2022-12-26T00:31:35;2.70;99.90
35607;DHT22;21729;58.392;15.656;2022-12-26T00:34:03;2.70;99.90
35607;DHT22;21729;58.392;15.656;2022-12-26T00:36:32;2.70;99.90
35607;DHT22;21729;58.392;15.656;2022-12-26T00:39:00;2.70;99.90
35607;DHT22;21729;58.392;15.656;2022-12-26T00:41:32;2.70;99.90
35607;DHT22;21729;58.392;15.656;2022-12-26T00:43:59;2.70;99.90
35607;DHT22;21729;58.392;15.656;2022-12-26T00:46:26;2.60;99.90
35607;DHT22;21729;58.392;15.656;2022-12-26T00:48:54;2.60;99.90
35607;DHT22;21729;58.392;15.656;2022-12-26T00:51:22;2.60;99.90
35607;DHT22;21729;58.392;15.656;2022-12-26T00:53:49;2.60;99.90
35607;DHT22;21729;58.392;15.656;2022-12-26T00:56:16;2.60;99.90
35607;DHT22;21729;58.392;15.656;2022-12-26T00:58:45;2.60;99.90
35607;DHT22;21729;58.392;15.656;2022-12-26T01:01:14;2.60;99.90
35607;DHT22;21729;58.392;15.656;2022-12-26T01:03:42;2.60;99.90
35607;DHT22;21729;58.392;15.656;2022-12-26T01:06:10;2.60;99.90
35607;DHT22;21729;58.392;15.656;2022-12-26T01:08:37;2.60;99.90
35607;DHT22;21729;58.392;15.656;2022-12-26T01:11:06;2.60;99.90
35607;DHT22;21729;58.392;15.656;2022-12-26T01:13:34;2.70;99.90
35607;DHT22;21729;58.392;15.656;2022-12-26T01:16:04;2.70;99.90
35607;DHT22;21729;58.392;15.656;2022-12-26T01:18:32;2.60;99.90
35607;DHT22;21729;58.392;15.656;2022-12-26T01:21:00;2.60;99.90
35607;DHT22;21729;58.392;15.656;2022-12-26T01:23:28;2.60;99.90
35607;DHT22;21729;58.392;15.656;2022-12-26T01:25:55;2.60;99.90
35607;DHT22;21729;58.392;15.656;2022-12-26T01:28:22;2.60;99.90
35607;DHT22;21729;58.392;15.656;2022-12-26T01:30:50;2.60;99.90
35607;DHT22;21729;58.392;15.656;2022-12-26T01:33:18;2.60;99.90
35607;DHT22;21729;58.392;15.656;2022-12-26T01:35:50;2.60;99.90
35607;DHT22;21729;58.392;15.656;2022-12-26T01:38:17;2.70;99.90
35607;DHT22;21729;58.392;15.656;2022-12-26T01:40:45;2.70;99.90
35607;DHT22;21729;58.392;15.656;2022-12-26T01:43:13;2.70;99.90
35607;DHT22;21729;58.392;15.656;2022-12-26T01:45:43;2.70;99.90
35607;DHT22;21729;58.392;15.656;2022-12-26T01:48:16;2.70;99.90
35607;DHT22;21729;58.392;15.656;2022-12-26T01:50:51;2.70;99.90
35607;DHT22;21729;58.392;15.656;2022-12-26T01:53:23;2.70;99.90
35607;DHT22;21729;58.392;15.656;2022-12-26T01:55:55;2.70;99.90
35607;DHT22;21729;58.392;15.656;2022-12-26T01:58:28;2.70;99.90
35607;DHT22;21729;58.392;15.656;2022-12-26T02:00:57;2.70;99.90
35607;DHT22;21729;58.392;15.656;2022-12-26T02:03:24;2.70;99.90
35607;DHT22;21729;58.392;15.656;2022-12-26T02:06:10;2.70;99.90
35607;DHT22;21729;58.392;15.656;2022-12-26T02:08:40;2.80;99.90
35607;DHT22;21729;58.392;15.656;2022-12-26T02:11:12;2.80;99.90
35607;DHT22;21729;58.392;15.656;2022-12-26T02:13:40;2.80;99.90
35607;DHT22;21729;58.392;15.656;2022-12-26T02:16:11;2.80;99.90
35607;DHT22;21729;58.392;15.656;2022-12-26T02:18:38;2.80;99.90
35607;DHT22;21729;58.392;15.656;2022-12-26T02:24:31;2.80;99.90
35607;DHT22;21729;58.392;15.656;2022-12-26T02:27:13;2.80;99.90
35607;DHT22;21729;58.392;15.656;2022-12-26T02:30:10;2.80;99.90
35607;DHT22;21729;58.392;15.656;2022-12-26T02:32:53;2.80;99.90
35607;DHT22;21729;58.392;15.656;2022-12-26T02:35:36;2.80;99.90
35607;DHT22;21729;58.392;15.656;2022-12-26T02:38:21;2.80;99.90
35607;DHT22;21729;58.392;15.656;2022-12-26T02:40:55;2.80;99.90
35607;DHT22;21729;58.392;15.656;2022-12-26T02:43:33;2.80;99.90
35607;DHT22;21729;58.392;15.656;2022-12-26T02:46:08;2.80;99.90
35607;DHT22;21729;58.392;15.656;2022-12-26T02:49:01;2.80;99.90
35607;DHT22;21729;58.392;15.656;2022-12-26T02:51:41;2.80;99.90
35607;DHT22;21729;58.392;15.656;2022-12-26T02:54:36;2.90;99.90
35607;DHT22;21729;58.392;15.656;2022-12-26T02:57:24;2.80;99.90
35607;DHT22;21729;58.392;15.656;2022-12-26T03:00:15;2.90;99.90
35607;DHT22;21729;58.392;15.656;2022-12-26T03:03:02;2.80;99.90
35607;DHT22;21729;58.392;15.656;2022-12-26T03:05:53;2.80;99.90
35607;DHT22;21729;58.392;15.656;2022-12-26T03:08:44;2.80;99.90
35607;DHT22;21729;58.392;15.656;2022-12-26T03:11:33;2.90;99.90
35607;DHT22;21729;58.392;15.656;2022-12-26T03:14:23;2.90;99.90
35607;DHT22;21729;58.392;15.656;2022-12-26T03:16:55;2.90;99.90
35607;DHT22;21729;58.392;15.656;2022-12-26T03:19:42;2.90;99.90
35607;DHT22;21729;58.392;15.656;2022-12-26T03:22:28;2.90;99.90
35607;DHT22;21729;58.392;15.656;2022-12-26T03:24:59;2.90;99.90
35607;DHT22;21729;58.392;15.656;2022-12-26T03:27:53;2.90;99.90
35607;DHT22;21729;58.392;15.656;2022-12-26T03:30:21;2.90;99.90
35607;DHT22;21729;58.392;15.656;2022-12-26T03:33:06;3.00;99.90
35607;DHT22;21729;58.392;15.656;2022-12-26T03:35:54;2.90;99.90
35607;DHT22;21729;58.392;15.656;2022-12-26T03:38:24;2.90;99.90
35607;DHT22;21729;58.392;15.656;2022-12-26T03:41:01;2.90;99.90
35607;DHT22;21729;58.392;15.656;2022-12-26T03:43:59;2.90;99.90
35607;DHT22;21729;58.392;15.656;2022-12-26T03:47:00;3.00;99.90
35607;DHT22;21729;58.392;15.656;2022-12-26T03:49:50;2.90;99.90
35607;DHT22;21729;58.392;15.656;2022-12-26T03:52:42;2.90;99.90
35607;DHT22;21729;58.392;15.656;2022-12-26T03:55:33;3.00;99.90
35607;DHT22;21729;58.392;15.656;2022-12-26T03:58:25;3.00;99.90
35607;DHT22;21729;58.392;15.656;2022-12-26T04:01:15;3.00;99.90
35607;DHT22;21729;58.392;15.656;2022-12-26T04:04:03;3.00;99.90
35607;DHT22;21729;58.392;15.656;2022-12-26T04:06:51;3.00;99.90
35607;DHT22;21729;58.392;15.656;2022-12-26T04:09:42;3.00;99.90
35607;DHT22;21729;58.392;15.656;2022-12-26T04:12:31;3.00;99.90
35607;DHT22;21729;58.392;15.656;2022-12-26T04:15:20;3.00;99.90
35607;DHT22;21729;58.392;15.656;2022-12-26T04:18:09;3.00;99.90
35607;DHT22;21729;58.392;15.656;2022-12-26T04:21:07;3.00;99.90
35607;DHT22;21729;58.392;15.656;2022-12-26T04:24:00;3.00;99.90
35607;DHT22;21729;58.392;15.656;2022-12-26T04:26:48;3.00;99.90
35607;DHT22;21729;58.392;15.656;2022-12-26T04:29:37;3.00;99.90
35607;DHT22;21729;58.392;15.656;2022-12-26T04:32:26;3.00;99.90
35607;DHT22;21729;58.392;15.656;2022-12-26T04:35:17;3.00;99.90
35607;DHT22;21729;58.392;15.656;2022-12-26T04:38:04;2.90;99.90
35607;DHT22;21729;58.392;15.656;2022-12-26T04:40:55;3.00;99.90
35607;DHT22;21729;58.392;15.656;2022-12-26T04:43:41;3.00;99.90
35607;DHT22;21729;58.392;15.656;2022-12-26T04:46:30;3.00;99.90
35607;DHT22;21729;58.392;15.656;2022-12-26T04:48:59;3.00;99.90
35607;DHT22;21729;58.392;15.656;2022-12-26T04:51:46;3.00;99.90
35607;DHT22;21729;58.392;15.656;2022-12-26T04:54:14;3.00;99.90
35607;DHT22;21729;58.392;15.656;2022-12-26T04:56:41;3.00;99.90
35607;DHT22;21729;58.392;15.656;2022-12-26T04:59:08;3.00;99.90
35607;DHT22;21729;58.392;15.656;2022-12-26T05:01:37;3.00;99.90
35607;DHT22;21729;58.392;15.656;2022-12-26T05:04:22;3.10;97.90
35607;DHT22;21729;58.392;15.656;2022-12-26T05:07:13;3.00;92.40
35607;DHT22;21729;58.392;15.656;2022-12-26T05:09:55;3.00;78.60
35607;DHT22;21729;58.392;15.656;2022-12-26T05:12:22;3.00;92.70
35607;DHT22;21729;58.392;15.656;2022-12-26T05:14:49;3.00;77.70
35607;DHT22;21729;58.392;15.656;2022-12-26T05:17:18;3.00;70.60
35607;DHT22;21729;58.392;15.656;2022-12-26T05:20:03;3.10;68.50
35607;DHT22;21729;58.392;15.656;2022-12-26T05:22:47;3.00;69.70
35607;DHT22;21729;58.392;15.656;2022-12-26T05:25:35;3.00;68.70
35607;DHT22;21729;58.392;15.656;2022-12-26T05:28:21;3.00;64.50
35607;DHT22;21729;58.392;15.656;2022-12-26T05:31:06;3.00;76.30
35607;DHT22;21729;58.392;15.656;2022-12-26T05:33:34;3.00;78.30
35607;DHT22;21729;58.392;15.656;2022-12-26T05:36:22;3.00;73.50
35607;DHT22;21729;58.392;15.656;2022-12-26T05:38:50;3.00;74.90
35607;DHT22;21729;58.392;15.656;2022-12-26T05:41:17;3.00;70.50
35607;DHT22;21729;58.392;15.656;2022-12-26T05:43:44;3.00;86.40
35607;DHT22;21729;58.392;15.656;2022-12-26T05:46:11;3.00;88.20
35607;DHT22;21729;58.392;15.656;2022-12-26T05:48:40;3.00;81.40
35607;DHT22;21729;58.392;15.656;2022-12-26T05:51:07;3.00;83.20
35607;DHT22;21729;58.392;15.656;2022-12-26T05:53:34;3.00;81.10
35607;DHT22;21729;58.392;15.656;2022-12-26T05:56:02;3.00;86.60
35607;DHT22;21729;58.392;15.656;2022-12-26T05:58:30;3.00;89.30
35607;DHT22;21729;58.392;15.656;2022-12-26T06:01:05;3.00;99.90
35607;DHT22;21729;58.392;15.656;2022-12-26T06:03:32;3.00;99.90
35607;DHT22;21729;58.392;15.656;2022-12-26T06:06:01;3.00;99.90
35607;DHT22;21729;58.392;15.656;2022-12-26T06:08:29;3.00;99.90
35607;DHT22;21729;58.392;15.656;2022-12-26T06:10:56;3.00;99.90
35607;DHT22;21729;58.392;15.656;2022-12-26T06:13:23;3.00;99.90
35607;DHT22;21729;58.392;15.656;2022-12-26T06:15:50;3.00;99.90
35607;DHT22;21729;58.392;15.656;2022-12-26T06:18:18;3.00;99.90
35607;DHT22;21729;58.392;15.656;2022-12-26T06:20:45;3.00;99.90
35607;DHT22;21729;58.392;15.656;2022-12-26T06:23:13;3.00;99.90
35607;DHT22;21729;58.392;15.656;2022-12-26T06:25:40;2.90;99.90
35607;DHT22;21729;58.392;15.656;2022-12-26T06:28:07;2.90;99.90
35607;DHT22;21729;58.392;15.656;2022-12-26T06:30:34;3.00;99.90
35607;DHT22;21729;58.392;15.656;2022-12-26T06:33:02;3.00;99.90
35607;DHT22;21729;58.392;15.656;2022-12-26T06:35:29;3.00;99.90
35607;DHT22;21729;58.392;15.656;2022-12-26T06:37:56;2.90;99.90
35607;DHT22;21729;58.392;15.656;2022-12-26T06:40:24;2.90;99.90
35607;DHT22;21729;58.392;15.656;2022-12-26T06:42:51;2.90;99.90
35607;DHT22;21729;58.392;15.656;2022-12-26T06:45:18;2.90;99.90
35607;DHT22;21729;58.392;15.656;2022-12-26T06:47:47;3.00;99.90
35607;DHT22;21729;58.392;15.656;2022-12-26T06:50:15;3.00;99.90
35607;DHT22;21729;58.392;15.656;2022-12-26T06:52:42;3.00;99.90
35607;DHT22;21729;58.392;15.656;2022-12-26T06:55:09;3.00;99.90
35607;DHT22;21729;58.392;15.656;2022-12-26T06:57:38;3.00;99.90
35607;DHT22;21729;58.392;15.656;2022-12-26T07:00:06;3.00;99.90
35607;DHT22;21729;58.392;15.656;2022-12-26T07:02:33;3.10;99.90
35607;DHT22;21729;58.392;15.656;2022-12-26T07:05:00;3.10;99.90
35607;DHT22;21729;58.392;15.656;2022-12-26T07:07:27;3.10;99.90
35607;DHT22;21729;58.392;15.656;2022-12-26T07:09:55;3.10;99.90
35607;DHT22;21729;58.392;15.656;2022-12-26T07:12:22;3.00;99.90
35607;DHT22;21729;58.392;15.656;2022-12-26T07:14:51;3.00;99.90
35607;DHT22;21729;58.392;15.656;2022-12-26T07:17:18;3.00;99.90
35607;DHT22;21729;58.392;15.656;2022-12-26T07:19:45;3.00;99.90
35607;DHT22;21729;58.392;15.656;2022-12-26T07:22:12;3.00;99.90
35607;DHT22;21729;58.392;15.656;2022-12-26T07:24:39;3.00;99.90
35607;DHT22;21729;58.392;15.656;2022-12-26T07:27:06;3.00;99.90
35607;DHT22;21729;58.392;15.656;2022-12-26T07:29:33;3.00;99.90
35607;DHT22;21729;58.392;15.656;2022-12-26T07:32:02;3.10;99.90
35607;DHT22;21729;58.392;15.656;2022-12-26T07:34:29;3.00;99.90
35607;DHT22;21729;58.392;15.656;2022-12-26T07:36:57;3.00;99.90
35607;DHT22;21729;58.392;15.656;2022-12-26T07:39:24;3.10;99.90
35607;DHT22;21729;58.392;15.656;2022-12-26T07:41:51;3.10;99.90
35607;DHT22;21729;58.392;15.656;2022-12-26T07:44:24;3.00;99.90
35607;DHT22;21729;58.392;15.656;2022-12-26T07:46:51;3.10;99.90
35607;DHT22;21729;58.392;15.656;2022-12-26T07:49:20;3.10;99.90
35607;DHT22;21729;58.392;15.656;2022-12-26T07:51:47;3.10;99.90
35607;DHT22;21729;58.392;15.656;2022-12-26T07:54:15;3.10;99.90
35607;DHT22;21729;58.392;15.656;2022-12-26T07:56:42;3.00;99.90
35607;DHT22;21729;58.392;15.656;2022-12-26T07:59:12;3.10;99.90
35607;DHT22;21729;58.392;15.656;2022-12-26T08:01:40;3.10;99.90
35607;DHT22;21729;58.392;15.656;2022-12-26T08:04:07;3.10;99.90
35607;DHT22;21729;58.392;15.656;2022-12-26T08:06:36;3.10;99.90
35607;DHT22;21729;58.392;15.656;2022-12-26T08:09:04;3.20;99.90
35607;DHT22;21729;58.392;15.656;2022-12-26T08:11:33;3.20;99.90
35607;DHT22;21729;58.392;15.656;2022-12-26T08:14:01;3.20;99.90
35607;DHT22;21729;58.392;15.656;2022-12-26T08:16:28;3.10;99.90
35607;DHT22;21729;58.392;15.656;2022-12-26T08:18:56;3.10;99.90
35607;DHT22;21729;58.392;15.656;2022-12-26T08:21:23;3.10;99.90
35607;DHT22;21729;58.392;15.656;2022-12-26T08:23:51;3.20;99.90
35607;DHT22;21729;58.392;15.656;2022-12-26T08:26:19;3.20;99.90
35607;DHT22;21729;58.392;15.656;2022-12-26T08:28:49;3.20;99.90
35607;DHT22;21729;58.392;15.656;2022-12-26T08:31:18;3.20;99.90
35607;DHT22;21729;58.392;15.656;2022-12-26T08:33:45;3.20;99.90
35607;DHT22;21729;58.392;15.656;2022-12-26T08:36:13;3.20;99.90
35607;DHT22;21729;58.392;15.656;2022-12-26T08:38:41;3.20;99.90
35607;DHT22;21729;58.392;15.656;2022-12-26T08:41:10;3.20;99.90
35607;DHT22;21729;58.392;15.656;2022-12-26T08:43:37;3.20;99.90
35607;DHT22;21729;58.392;15.656;2022-12-26T08:46:06;3.20;99.90
35607;DHT22;21729;58.392;15.656;2022-12-26T08:48:34;3.20;99.90
35607;DHT22;21729;58.392;15.656;2022-12-26T08:51:03;3.30;99.90
35607;DHT22;21729;58.392;15.656;2022-12-26T08:53:31;3.30;99.90
35607;DHT22;21729;58.392;15.656;2022-12-26T08:56:00;3.30;99.90
35607;DHT22;21729;58.392;15.656;2022-12-26T08:58:29;3.30;99.90
35607;DHT22;21729;58.392;15.656;2022-12-26T09:01:04;3.40;99.90
35607;DHT22;21729;58.392;15.656;2022-12-26T09:03:32;3.40;99.90
35607;DHT22;21729;58.392;15.656;2022-12-26T09:05:59;3.30;99.90
35607;DHT22;21729;58.392;15.656;2022-12-26T09:08:28;3.40;99.90
35607;DHT22;21729;58.392;15.656;2022-12-26T09:10:55;3.40;99.90
35607;DHT22;21729;58.392;15.656;2022-12-26T09:13:22;3.40;99.90
35607;DHT22;21729;58.392;15.656;2022-12-26T09:15:51;3.40;99.90
35607;DHT22;21729;58.392;15.656;2022-12-26T09:18:18;3.40;99.90
35607;DHT22;21729;58.392;15.656;2022-12-26T09:20:45;3.40;99.90
35607;DHT22;21729;58.392;15.656;2022-12-26T09:23:12;3.40;99.90
35607;DHT22;21729;58.392;15.656;2022-12-26T09:25:40;3.40;99.90
35607;DHT22;21729;58.392;15.656;2022-12-26T09:28:07;3.50;99.90
35607;DHT22;21729;58.392;15.656;2022-12-26T09:30:35;3.40;99.90
35607;DHT22;21729;58.392;15.656;2022-12-26T09:33:05;3.50;99.90
35607;DHT22;21729;58.392;15.656;2022-12-26T09:35:33;3.50;99.90
35607;DHT22;21729;58.392;15.656;2022-12-26T09:38:00;3.50;99.90
35607;DHT22;21729;58.392;15.656;2022-12-26T09:40:31;3.60;99.90
35607;DHT22;21729;58.392;15.656;2022-12-26T09:43:11;3.50;99.90
35607;DHT22;21729;58.392;15.656;2022-12-26T09:45:50;3.60;99.90
35607;DHT22;21729;58.392;15.656;2022-12-26T09:48:26;3.60;99.90
35607;DHT22;21729;58.392;15.656;2022-12-26T09:50:55;3.60;99.90
35607;DHT22;21729;58.392;15.656;2022-12-26T09:53:31;3.60;99.90
35607;DHT22;21729;58.392;15.656;2022-12-26T09:56:02;3.60;99.90
35607;DHT22;21729;58.392;15.656;2022-12-26T09:58:33;3.70;99.90
35607;DHT22;21729;58.392;15.656;2022-12-26T10:01:04;3.70;99.90
35607;DHT22;21729;58.392;15.656;2022-12-26T10:03:38;3.70;99.90
35607;DHT22;21729;58.392;15.656;2022-12-26T10:06:13;3.70;99.90
35607;DHT22;21729;58.392;15.656;2022-12-26T10:09:00;3.70;99.90
35607;DHT22;21729;58.392;15.656;2022-12-26T10:11:38;3.70;99.90
35607;DHT22;21729;58.392;15.656;2022-12-26T10:14:13;3.80;99.90
35607;DHT22;21729;58.392;15.656;2022-12-26T10:16:49;3.80;99.90
35607;DHT22;21729;58.392;15.656;2022-12-26T10:19:40;3.80;99.90
35607;DHT22;21729;58.392;15.656;2022-12-26T10:25:13;3.90;99.90
35607;DHT22;21729;58.392;15.656;2022-12-26T10:27:43;3.90;99.90
35607;DHT22;21729;58.392;15.656;2022-12-26T10:30:17;3.90;99.90
35607;DHT22;21729;58.392;15.656;2022-12-26T10:32:49;3.90;99.90
35607;DHT22;21729;58.392;15.656;2022-12-26T10:35:23;3.90;99.90
35607;DHT22;21729;58.392;15.656;2022-12-26T10:37:54;3.90;99.90
35607;DHT22;21729;58.392;15.656;2022-12-26T10:40:27;3.90;99.90
35607;DHT22;21729;58.392;15.656;2022-12-26T10:43:17;3.90;99.90
35607;DHT22;21729;58.392;15.656;2022-12-26T10:45:49;3.90;99.90
35607;DHT22;21729;58.392;15.656;2022-12-26T10:48:17;3.90;99.90
35607;DHT22;21729;58.392;15.656;2022-12-26T10:50:47;3.90;99.90
35607;DHT22;21729;58.392;15.656;2022-12-26T10:53:15;4.00;99.90
35607;DHT22;21729;58.392;15.656;2022-12-26T10:55:43;4.00;99.90
35607;DHT22;21729;58.392;15.656;2022-12-26T10:58:15;4.00;99.90
35607;DHT22;21729;58.392;15.656;2022-12-26T11:00:43;4.00;99.90
35607;DHT22;21729;58.392;15.656;2022-12-26T11:03:12;4.00;99.90
35607;DHT22;21729;58.392;15.656;2022-12-26T11:05:41;4.00;99.90
35607;DHT22;21729;58.392;15.656;2022-12-26T11:08:15;4.00;99.90
35607;DHT22;21729;58.392;15.656;2022-12-26T11:11:00;4.00;99.90
35607;DHT22;21729;58.392;15.656;2022-12-26T11:13:30;4.00;99.90
35607;DHT22;21729;58.392;15.656;2022-12-26T11:15:58;4.00;99.90
35607;DHT22;21729;58.392;15.656;2022-12-26T11:18:31;4.00;99.90
35607;DHT22;21729;58.392;15.656;2022-12-26T11:21:12;4.10;99.90
35607;DHT22;21729;58.392;15.656;2022-12-26T11:23:41;4.10;99.90
35607;DHT22;21729;58.392;15.656;2022-12-26T11:26:20;4.10;99.90
35607;DHT22;21729;58.392;15.656;2022-12-26T11:28:47;4.10;99.90
35607;DHT22;21729;58.392;15.656;2022-12-26T11:31:30;4.10;99.90
35607;DHT22;21729;58.392;15.656;2022-12-26T11:33:58;4.20;99.90
35607;DHT22;21729;58.392;15.656;2022-12-26T11:36:27;4.20;99.90
35607;DHT22;21729;58.392;15.656;2022-12-26T11:38:59;4.20;99.90
35607;DHT22;21729;58.392;15.656;2022-12-26T11:41:36;4.20;99.90
35607;DHT22;21729;58.392;15.656;2022-12-26T11:44:22;4.20;99.90
35607;DHT22;21729;58.392;15.656;2022-12-26T11:46:54;4.20;99.90
35607;DHT22;21729;58.392;15.656;2022-12-26T11:49:26;4.20;99.90
35607;DHT22;21729;58.392;15.656;2022-12-26T11:51:55;4.20;99.90
35607;DHT22;21729;58.392;15.656;2022-12-26T11:54:35;4.20;99.90
35607;DHT22;21729;58.392;15.656;2022-12-26T11:57:14;4.20;99.90
35607;DHT22;21729;58.392;15.656;2022-12-26T11:59:42;4.10;99.90
35607;DHT22;21729;58.392;15.656;2022-12-26T12:05:05;4.10;99.90
35607;DHT22;21729;58.392;15.656;2022-12-26T12:07:51;4.10;99.90
35607;DHT22;21729;58.392;15.656;2022-12-26T12:13:35;4.00;99.90
35607;DHT22;21729;58.392;15.656;2022-12-26T12:16:12;4.00;99.90
35607;DHT22;21729;58.392;15.656;2022-12-26T12:18:50;4.00;99.90
35607;DHT22;21729;58.392;15.656;2022-12-26T12:21:25;4.00;99.90
35607;DHT22;21729;58.392;15.656;2022-12-26T12:26:56;4.00;99.90
35607;DHT22;21729;58.392;15.656;2022-12-26T12:29:48;4.00;99.90
35607;DHT22;21729;58.392;15.656;2022-12-26T12:32:23;3.90;99.90
35607;DHT22;21729;58.392;15.656;2022-12-26T12:37:52;3.90;99.90
35607;DHT22;21729;58.392;15.656;2022-12-26T12:40:30;3.90;99.90
35607;DHT22;21729;58.392;15.656;2022-12-26T12:43:06;3.90;99.90
35607;DHT22;21729;58.392;15.656;2022-12-26T12:45:45;3.90;99.90
35607;DHT22;21729;58.392;15.656;2022-12-26T12:48:29;3.90;99.90
35607;DHT22;21729;58.392;15.656;2022-12-26T12:51:06;3.80;99.90
35607;DHT22;21729;58.392;15.656;2022-12-26T12:53:58;3.80;99.90
35607;DHT22;21729;58.392;15.656;2022-12-26T12:56:35;3.80;99.90
35607;DHT22;21729;58.392;15.656;2022-12-26T12:59:14;3.80;99.90
35607;DHT22;21729;58.392;15.656;2022-12-26T13:01:49;3.80;99.90
35607;DHT22;21729;58.392;15.656;2022-12-26T13:04:20;3.70;99.90
35607;DHT22;21729;58.392;15.656;2022-12-26T13:06:51;3.70;99.90
35607;DHT22;21729;58.392;15.656;2022-12-26T13:09:21;3.70;99.90
35607;DHT22;21729;58.392;15.656;2022-12-26T13:11:53;3.70;99.90
35607;DHT22;21729;58.392;15.656;2022-12-26T13:14:23;3.70;99.90
35607;DHT22;21729;58.392;15.656;2022-12-26T13:16:56;3.70;99.90
35607;DHT22;21729;58.392;15.656;2022-12-26T13:19:26;3.70;99.90
35607;DHT22;21729;58.392;15.656;2022-12-26T13:21:59;3.70;99.90
35607;DHT22;21729;58.392;15.656;2022-12-26T13:24:32;3.70;99.90
35607;DHT22;21729;58.392;15.656;2022-12-26T13:27:03;3.60;99.90
35607;DHT22;21729;58.392;15.656;2022-12-26T13:29:37;3.60;99.90
35607;DHT22;21729;58.392;15.656;2022-12-26T13:32:15;3.60;99.90
35607;DHT22;21729;58.392;15.656;2022-12-26T13:34:43;3.60;99.90
35607;DHT22;21729;58.392;15.656;2022-12-26T13:40:15;3.60;99.90
35607;DHT22;21729;58.392;15.656;2022-12-26T13:42:44;3.60;99.90
35607;DHT22;21729;58.392;15.656;2022-12-26T13:45:57;3.60;99.90
35607;DHT22;21729;58.392;15.656;2022-12-26T13:51:49;3.50;99.90
35607;DHT22;21729;58.392;15.656;2022-12-26T13:54:17;3.50;99.90
35607;DHT22;21729;58.392;15.656;2022-12-26T13:57:20;3.40;99.90
35607;DHT22;21729;58.392;15.656;2022-12-26T14:00:00;3.50;99.90
35607;DHT22;21729;58.392;15.656;2022-12-26T14:05:36;3.40;99.90
35607;DHT22;21729;58.392;15.656;2022-12-26T14:08:12;3.40;99.90
35607;DHT22;21729;58.392;15.656;2022-12-26T14:10:52;3.40;99.90
35607;DHT22;21729;58.392;15.656;2022-12-26T14:13:41;3.40;99.90
35607;DHT22;21729;58.392;15.656;2022-12-26T14:16:17;3.40;99.90
35607;DHT22;21729;58.392;15.656;2022-12-26T14:18:49;3.40;99.90
35607;DHT22;21729;58.392;15.656;2022-12-26T14:21:28;3.40;99.90
35607;DHT22;21729;58.392;15.656;2022-12-26T14:24:07;3.40;99.90
35607;DHT22;21729;58.392;15.656;2022-12-26T14:26:42;3.40;99.90
35607;DHT22;21729;58.392;15.656;2022-12-26T14:29:20;3.40;99.90
35607;DHT22;21729;58.392;15.656;2022-12-26T14:32:10;3.40;99.90
35607;DHT22;21729;58.392;15.656;2022-12-26T14:34:50;3.40;99.90
35607;DHT22;21729;58.392;15.656;2022-12-26T14:37:24;3.30;99.90
35607;DHT22;21729;58.392;15.656;2022-12-26T14:40:27;3.40;99.90
35607;DHT22;21729;58.392;15.656;2022-12-26T14:43:08;3.30;99.90
35607;DHT22;21729;58.392;15.656;2022-12-26T14:45:44;3.30;99.90
35607;DHT22;21729;58.392;15.656;2022-12-26T14:48:39;3.30;99.90
35607;DHT22;21729;58.392;15.656;2022-12-26T14:51:37;3.30;99.90
35607;DHT22;21729;58.392;15.656;2022-12-26T14:54:32;3.30;99.90
35607;DHT22;21729;58.392;15.656;2022-12-26T15:00:30;3.30;99.90
35607;DHT22;21729;58.392;15.656;2022-12-26T15:03:38;3.30;99.90
35607;DHT22;21729;58.392;15.656;2022-12-26T15:12:37;3.30;99.90
35607;DHT22;21729;58.392;15.656;2022-12-26T15:15:30;3.30;99.90
35607;DHT22;21729;58.392;15.656;2022-12-26T15:21:41;3.30;99.90
35607;DHT22;21729;58.392;15.656;2022-12-26T15:24:49;3.30;99.90
35607;DHT22;21729;58.392;15.656;2022-12-26T15:27:39;3.30;99.90
35607;DHT22;21729;58.392;15.656;2022-12-26T15:30:17;3.30;99.90
35607;DHT22;21729;58.392;15.656;2022-12-26T15:32:55;3.30;99.90
35607;DHT22;21729;58.392;15.656;2022-12-26T15:35:29;3.30;99.90
35607;DHT22;21729;58.392;15.656;2022-12-26T15:38:12;3.30;99.90
35607;DHT22;21729;58.392;15.656;2022-12-26T15:40:43;3.20;99.90
35607;DHT22;21729;58.392;15.656;2022-12-26T15:46:18;3.20;99.90
35607;DHT22;21729;58.392;15.656;2022-12-26T15:49:04;3.20;99.90
35607;DHT22;21729;58.392;15.656;2022-12-26T15:51:48;3.20;99.90
35607;DHT22;21729;58.392;15.656;2022-12-26T15:54:28;3.20;99.90
35607;DHT22;21729;58.392;15.656;2022-12-26T15:57:10;3.20;99.90
35607;DHT22;21729;58.392;15.656;2022-12-26T16:00:03;3.20;99.90
35607;DHT22;21729;58.392;15.656;2022-12-26T16:02:37;3.20;99.90
35607;DHT22;21729;58.392;15.656;2022-12-26T16:05:29;3.20;99.90
35607;DHT22;21729;58.392;15.656;2022-12-26T16:08:07;3.10;99.90
35607;DHT22;21729;58.392;15.656;2022-12-26T16:10:37;3.10;99.90
35607;DHT22;21729;58.392;15.656;2022-12-26T16:13:14;3.10;99.90
35607;DHT22;21729;58.392;15.656;2022-12-26T16:15:50;3.10;99.90
35607;DHT22;21729;58.392;15.656;2022-12-26T16:18:24;3.00;99.90
35607;DHT22;21729;58.392;15.656;2022-12-26T16:20:53;3.00;99.90
35607;DHT22;21729;58.392;15.656;2022-12-26T16:23:40;3.00;99.90
35607;DHT22;21729;58.392;15.656;2022-12-26T16:26:15;3.00;99.90
35607;DHT22;21729;58.392;15.656;2022-12-26T16:28:43;3.00;99.90
35607;DHT22;21729;58.392;15.656;2022-12-26T16:31:16;3.00;99.90
35607;DHT22;21729;58.392;15.656;2022-12-26T16:33:45;3.00;99.90
35607;DHT22;21729;58.392;15.656;2022-12-26T16:36:17;3.00;99.90
35607;DHT22;21729;58.392;15.656;2022-12-26T16:38:45;3.00;99.90
35607;DHT22;21729;58.392;15.656;2022-12-26T16:41:19;3.00;99.90
35607;DHT22;21729;58.392;15.656;2022-12-26T16:43:47;2.90;99.90
35607;DHT22;21729;58.392;15.656;2022-12-26T16:46:15;2.70;99.90
35607;DHT22;21729;58.392;15.656;2022-12-26T16:48:59;2.90;99.90
35607;DHT22;21729;58.392;15.656;2022-12-26T16:51:38;2.90;99.90
35607;DHT22;21729;58.392;15.656;2022-12-26T16:54:16;2.90;99.90
35607;DHT22;21729;58.392;15.656;2022-12-26T16:56:47;2.90;99.90
35607;DHT22;21729;58.392;15.656;2022-12-26T16:59:16;2.90;99.90
35607;DHT22;21729;58.392;15.656;2022-12-26T17:01:48;2.80;99.90